createdAt,value
2018-06-24T00:00:08.077Z,11.50
2018-06-24T00:02:37.465Z,11.50
2018-06-24T00:05:06.777Z,11.50
2018-06-24T00:07:36.114Z,11.50
2018-06-24T00:10:05.536Z,11.40
2018-06-24T00:12:34.857Z,11.50
2018-06-24T00:15:04.490Z,11.40
2018-06-24T00:17:33.788Z,11.40
2018-06-24T00:20:03.116Z,11.40
2018-06-24T00:22:32.378Z,11.40
2018-06-24T00:25:01.640Z,11.40
2018-06-24T00:27:30.957Z,11.50
2018-06-24T00:30:00.242Z,11.40
2018-06-24T00:32:29.513Z,11.40
2018-06-24T00:34:58.815Z,11.40
2018-06-24T00:37:28.138Z,11.30
2018-06-24T00:39:57.414Z,11.20
2018-06-24T00:42:26.709Z,11.20
2018-06-24T00:47:25.260Z,11.00
2018-06-24T00:49:54.513Z,11.00
2018-06-24T00:52:23.804Z,10.90
2018-06-24T00:57:22.112Z,11.00
2018-06-24T01:00:02.561Z,11.00
2018-06-24T01:02:32.041Z,10.90
2018-06-24T01:05:01.339Z,10.90
2018-06-24T01:07:30.723Z,10.80
2018-06-24T01:10:00.058Z,10.80
2018-06-24T01:12:29.519Z,10.80
2018-06-24T01:14:59.713Z,11.00
2018-06-24T01:17:29.274Z,10.90
2018-06-24T01:19:59.725Z,10.90
2018-06-24T01:22:29.066Z,11.00
2018-06-24T01:24:58.389Z,10.90
2018-06-24T01:27:27.698Z,10.70
2018-06-24T01:29:56.954Z,10.70
2018-06-24T01:32:26.230Z,10.60
2018-06-24T01:34:55.622Z,10.60
2018-06-24T01:39:53.717Z,10.50
2018-06-24T01:42:23.047Z,10.40
2018-06-24T01:44:52.362Z,10.30
2018-06-24T01:47:21.643Z,10.20
2018-06-24T01:49:50.928Z,10.10
2018-06-24T01:52:20.225Z,10.00
2018-06-24T01:54:49.556Z,10.00
2018-06-24T01:57:18.940Z,9.90
2018-06-24T01:59:48.272Z,9.80
2018-06-24T02:02:17.657Z,9.80
2018-06-24T02:04:47.067Z,9.80
2018-06-24T02:07:16.447Z,9.70
2018-06-24T02:09:45.729Z,9.60
2018-06-24T02:12:15.009Z,9.70
2018-06-24T02:14:44.321Z,9.80
2018-06-24T02:17:13.575Z,9.80
2018-06-24T02:19:42.884Z,9.80
2018-06-24T02:22:12.264Z,9.80
2018-06-24T02:24:41.560Z,9.80
2018-06-24T02:27:10.822Z,9.70
2018-06-24T02:29:40.196Z,9.70
2018-06-24T02:32:09.489Z,9.80
2018-06-24T02:34:38.850Z,9.70
2018-06-24T02:37:08.243Z,9.80
2018-06-24T02:39:37.496Z,9.80
2018-06-24T02:42:06.804Z,9.80
2018-06-24T02:44:36.081Z,9.80
2018-06-24T02:47:05.433Z,9.70
2018-06-24T02:49:34.693Z,9.70
2018-06-24T02:52:04.045Z,9.70
2018-06-24T02:54:33.354Z,9.70
2018-06-24T02:57:02.633Z,9.60
2018-06-24T02:59:32.034Z,9.70
2018-06-24T03:02:01.308Z,9.60
2018-06-24T03:04:30.564Z,9.70
2018-06-24T03:06:59.836Z,9.80
2018-06-24T03:09:29.180Z,9.80
2018-06-24T03:11:58.512Z,9.80
2018-06-24T03:14:27.500Z,9.80
2018-06-24T03:16:56.498Z,9.80
2018-06-24T03:19:25.769Z,9.80
2018-06-24T03:21:55.151Z,9.70
2018-06-24T03:24:24.520Z,9.80
2018-06-24T03:26:53.828Z,9.70
2018-06-24T03:29:23.183Z,9.70
2018-06-24T03:31:53.031Z,9.60
2018-06-24T03:34:22.398Z,9.70
2018-06-24T03:36:51.668Z,9.60
2018-06-24T03:39:20.946Z,9.60
2018-06-24T03:41:50.294Z,9.60
2018-06-24T03:44:19.680Z,9.60
2018-06-24T03:46:48.980Z,9.60
2018-06-24T03:49:18.253Z,9.60
2018-06-24T03:54:16.373Z,9.70
2018-06-24T03:56:45.717Z,9.70
2018-06-24T03:59:15.111Z,9.70
2018-06-24T04:01:44.389Z,9.70
2018-06-24T04:04:13.739Z,9.80
2018-06-24T04:06:43.028Z,9.90
2018-06-24T04:09:12.354Z,10.00
2018-06-24T04:11:41.687Z,10.00
2018-06-24T04:14:10.988Z,10.10
2018-06-24T04:16:40.289Z,10.10
2018-06-24T04:19:09.609Z,10.10
2018-06-24T04:21:38.889Z,10.40
2018-06-24T04:24:08.144Z,10.80
2018-06-24T04:26:37.405Z,10.70
2018-06-24T04:29:06.679Z,10.70
2018-06-24T04:31:36.254Z,11.00
2018-06-24T04:34:05.587Z,11.40
2018-06-24T04:36:34.856Z,11.50
2018-06-24T04:39:05.953Z,11.60
2018-06-24T04:41:35.282Z,11.70
2018-06-24T04:44:04.329Z,11.70
2018-06-24T04:46:33.488Z,12.20
2018-06-24T04:51:31.121Z,12.00
2018-06-24T04:54:00.157Z,11.60
2018-06-24T04:56:29.589Z,11.20
2018-06-24T04:58:59.241Z,11.20
2018-06-24T05:01:28.530Z,11.20
2018-06-24T05:03:57.874Z,11.30
2018-06-24T05:06:27.203Z,11.40
2018-06-24T05:08:56.552Z,11.40
2018-06-24T05:11:25.840Z,11.60
2018-06-24T05:13:55.109Z,11.80
2018-06-24T05:16:24.434Z,11.60
2018-06-24T05:18:53.754Z,11.60
2018-06-24T05:21:23.017Z,11.60
2018-06-24T05:23:52.299Z,11.60
2018-06-24T05:26:21.567Z,11.50
2018-06-24T05:28:50.839Z,11.60
2018-06-24T05:31:20.216Z,11.50
2018-06-24T05:33:49.604Z,11.60
2018-06-24T05:36:18.979Z,11.60
2018-06-24T05:38:48.253Z,11.70
2018-06-24T05:41:17.553Z,11.70
2018-06-24T05:43:46.839Z,11.60
2018-06-24T05:46:16.149Z,11.60
2018-06-24T05:48:45.516Z,11.70
2018-06-24T05:51:14.758Z,11.80
2018-06-24T05:53:44.051Z,11.80
2018-06-24T05:56:13.558Z,11.70
2018-06-24T05:58:42.813Z,12.00
2018-06-24T06:03:40.963Z,12.20
2018-06-24T06:06:10.260Z,12.40
2018-06-24T06:08:39.510Z,12.40
2018-06-24T06:11:08.783Z,12.30
2018-06-24T06:16:06.862Z,12.90
2018-06-24T06:18:36.145Z,13.00
2018-06-24T06:21:05.480Z,13.30
2018-06-24T06:23:34.763Z,13.50
2018-06-24T06:26:04.062Z,13.30
2018-06-24T06:28:33.713Z,13.30
2018-06-24T06:31:03.103Z,13.50
2018-06-24T06:33:32.377Z,13.60
2018-06-24T06:36:01.642Z,13.80
2018-06-24T06:38:30.914Z,13.90
2018-06-24T06:41:00.246Z,13.90
2018-06-24T06:43:29.487Z,14.00
2018-06-24T06:45:58.788Z,14.10
2018-06-24T06:48:28.923Z,13.70
2018-06-24T06:50:58.286Z,13.50
2018-06-24T06:53:27.557Z,13.80
2018-06-24T06:55:56.853Z,13.90
2018-06-24T06:58:25.947Z,14.00
2018-06-24T07:00:54.995Z,13.60
2018-06-24T07:03:24.382Z,13.50
2018-06-24T07:05:53.709Z,13.60
2018-06-24T07:08:22.693Z,14.30
2018-06-24T07:10:52.012Z,14.60
2018-06-24T07:13:21.400Z,14.70
2018-06-24T07:15:50.970Z,14.70
2018-06-24T07:18:20.278Z,14.90
2018-06-24T07:20:49.623Z,15.00
2018-06-24T07:23:18.902Z,14.70
2018-06-24T07:25:48.210Z,15.30
2018-06-24T07:28:17.455Z,15.50
2018-06-24T07:30:47.198Z,15.40
2018-06-24T07:33:17.012Z,15.80
2018-06-24T07:35:46.583Z,16.10
2018-06-24T07:38:15.873Z,15.80
2018-06-24T07:40:45.900Z,15.70
2018-06-24T07:43:15.201Z,15.80
2018-06-24T07:45:44.561Z,15.80
2018-06-24T07:48:14.109Z,15.80
2018-06-24T07:50:43.482Z,16.10
2018-06-24T07:53:12.746Z,15.70
2018-06-24T07:55:42.051Z,16.60
2018-06-24T07:58:11.344Z,16.70
2018-06-24T08:00:40.672Z,16.90
2018-06-24T08:03:10.003Z,16.60
2018-06-24T08:05:39.301Z,16.50
2018-06-24T08:08:08.710Z,16.40
2018-06-24T08:10:37.973Z,16.40
2018-06-24T08:13:07.323Z,17.00
2018-06-24T08:15:36.762Z,16.70
2018-06-24T08:18:06.070Z,16.90
2018-06-24T08:23:04.196Z,17.40
2018-06-24T08:25:33.506Z,17.30
2018-06-24T08:28:02.807Z,16.70
2018-06-24T08:30:32.237Z,16.70
2018-06-24T08:33:01.556Z,16.80
2018-06-24T08:35:31.048Z,17.00
2018-06-24T08:38:00.328Z,17.10
2018-06-24T08:40:30.273Z,16.70
2018-06-24T08:42:59.620Z,17.10
2018-06-24T08:45:28.980Z,17.60
2018-06-24T08:47:58.227Z,16.90
2018-06-24T08:50:27.495Z,17.00
2018-06-24T08:52:56.795Z,18.00
2018-06-24T08:55:26.076Z,18.10
2018-06-24T09:00:24.244Z,19.00
2018-06-24T09:02:53.577Z,18.70
2018-06-24T09:05:22.962Z,18.80
2018-06-24T09:07:52.369Z,19.50
2018-06-24T09:12:51.041Z,19.10
2018-06-24T09:15:20.339Z,19.40
2018-06-24T09:17:49.883Z,19.80
2018-06-24T09:20:19.319Z,19.80
2018-06-24T09:22:48.734Z,19.20
2018-06-24T09:25:18.117Z,19.10
2018-06-24T09:27:47.763Z,19.60
2018-06-24T09:30:17.164Z,19.70
2018-06-24T09:32:46.438Z,19.80
2018-06-24T09:35:15.736Z,20.10
2018-06-24T09:37:46.053Z,20.80
2018-06-24T09:40:15.339Z,20.70
2018-06-24T09:42:44.874Z,19.90
2018-06-24T09:45:14.134Z,19.60
2018-06-24T09:47:43.534Z,20.10
2018-06-24T09:50:12.857Z,19.30
2018-06-24T09:52:42.204Z,19.60
2018-06-24T09:57:40.390Z,19.20
2018-06-24T10:00:15.254Z,19.00
2018-06-24T10:02:44.558Z,19.00
2018-06-24T10:05:13.858Z,19.50
2018-06-24T10:07:43.404Z,20.00
2018-06-24T10:10:12.687Z,19.80
2018-06-24T10:12:41.922Z,19.80
2018-06-24T10:15:11.177Z,20.20
2018-06-24T10:17:40.457Z,20.10
2018-06-24T10:20:09.739Z,20.30
2018-06-24T10:22:39.023Z,21.40
2018-06-24T10:25:08.355Z,21.60
2018-06-24T10:27:37.610Z,21.50
2018-06-24T10:30:07.429Z,21.30
2018-06-24T10:32:36.737Z,20.80
2018-06-24T10:35:06.030Z,19.60
2018-06-24T10:37:35.339Z,18.50
2018-06-24T10:40:04.683Z,18.60
2018-06-24T10:42:34.044Z,19.10
2018-06-24T10:45:03.648Z,19.70
2018-06-24T10:47:32.969Z,19.60
2018-06-24T10:50:02.348Z,19.50
2018-06-24T10:52:31.635Z,19.60
2018-06-24T10:55:00.931Z,20.50
2018-06-24T10:57:30.218Z,20.30
2018-06-24T10:59:59.495Z,20.80
2018-06-24T11:02:28.841Z,19.70
2018-06-24T11:04:58.201Z,19.90
2018-06-24T11:07:27.497Z,20.30
2018-06-24T11:09:56.810Z,21.10
2018-06-24T11:12:26.147Z,21.90
2018-06-24T11:14:55.523Z,21.50
2018-06-24T11:17:24.845Z,21.40
2018-06-24T11:19:54.218Z,21.40
2018-06-24T11:22:23.546Z,22.00
2018-06-24T11:24:52.863Z,21.20
2018-06-24T11:27:22.179Z,22.70
2018-06-24T11:29:51.520Z,22.90
2018-06-24T11:32:20.814Z,22.60
2018-06-24T11:34:50.142Z,23.00
2018-06-24T11:37:19.461Z,22.00
2018-06-24T11:39:48.704Z,22.10
2018-06-24T11:42:17.981Z,22.10
2018-06-24T11:44:47.258Z,22.20
2018-06-24T11:47:16.506Z,22.60
2018-06-24T11:49:45.806Z,22.40
2018-06-24T11:52:15.336Z,22.20
2018-06-24T11:54:44.608Z,21.30
2018-06-24T11:57:13.869Z,22.10
2018-06-24T11:59:43.144Z,22.50
2018-06-24T12:02:12.407Z,21.60
2018-06-24T12:04:41.714Z,20.60
2018-06-24T12:07:10.989Z,20.30
2018-06-24T12:09:41.701Z,20.20
2018-06-24T12:12:10.970Z,19.90
2018-06-24T12:14:40.331Z,20.60
2018-06-24T12:17:09.599Z,20.90
2018-06-24T12:19:38.920Z,21.00
2018-06-24T12:22:08.203Z,21.10
2018-06-24T12:24:37.520Z,21.70
2018-06-24T12:27:06.850Z,21.50
2018-06-24T12:29:36.179Z,21.00
2018-06-24T12:32:05.501Z,20.60
2018-06-24T12:34:34.796Z,20.00
2018-06-24T12:37:04.096Z,19.50
2018-06-24T12:39:33.428Z,18.90
2018-06-24T12:42:02.728Z,19.50
2018-06-24T12:47:00.949Z,20.10
2018-06-24T12:49:30.358Z,21.00
2018-06-24T12:51:59.725Z,20.80
2018-06-24T12:54:29.061Z,20.60
2018-06-24T12:56:58.429Z,19.70
2018-06-24T12:59:27.973Z,19.80
2018-06-24T13:01:57.040Z,19.70
2018-06-24T13:04:26.357Z,19.70
2018-06-24T13:06:55.658Z,19.20
2018-06-24T13:09:25.078Z,20.10
2018-06-24T13:11:54.548Z,20.00
2018-06-24T13:14:23.854Z,19.80
2018-06-24T13:16:53.127Z,19.70
2018-06-24T13:19:22.448Z,19.60
2018-06-24T13:21:51.857Z,20.10
2018-06-24T13:24:21.543Z,19.80
2018-06-24T13:29:19.728Z,20.00
2018-06-24T13:31:49.136Z,19.70
2018-06-24T13:34:18.456Z,19.80
2018-06-24T13:36:47.888Z,19.70
2018-06-24T13:39:17.165Z,19.80
2018-06-24T13:41:46.499Z,20.10
2018-06-24T13:44:16.797Z,20.40
2018-06-24T13:46:46.053Z,20.20
2018-06-24T13:49:15.393Z,19.30
2018-06-24T13:51:44.670Z,19.70
2018-06-24T13:54:14.057Z,19.10
2018-06-24T13:56:43.319Z,20.10
2018-06-24T13:59:12.588Z,19.90
2018-06-24T14:01:41.929Z,19.20
2018-06-24T14:04:11.205Z,19.10
2018-06-24T14:06:40.562Z,19.40
2018-06-24T14:09:12.364Z,19.30
2018-06-24T14:11:41.623Z,19.70
2018-06-24T14:14:10.993Z,19.90
2018-06-24T14:16:40.319Z,19.20
2018-06-24T14:19:09.774Z,19.60
2018-06-24T14:21:39.066Z,19.60
2018-06-24T14:24:08.327Z,19.40
2018-06-24T14:31:35.545Z,19.50
2018-06-24T14:34:04.950Z,19.60
2018-06-24T14:36:34.263Z,19.70
2018-06-24T14:39:04.606Z,19.20
2018-06-24T14:41:33.955Z,19.30
2018-06-24T14:44:03.460Z,19.40
2018-06-24T14:46:32.821Z,19.50
2018-06-24T14:49:02.481Z,19.20
2018-06-24T14:51:31.767Z,18.70
2018-06-24T14:54:01.703Z,18.50
2018-06-24T14:56:30.968Z,18.90
2018-06-24T14:59:00.268Z,18.70
2018-06-24T15:01:29.636Z,18.80
2018-06-24T15:03:58.861Z,18.60
2018-06-24T15:06:28.318Z,19.00
2018-06-24T15:08:57.680Z,18.60
2018-06-24T15:11:27.004Z,18.80
2018-06-24T15:13:56.489Z,18.60
2018-06-24T15:18:54.899Z,18.60
2018-06-24T15:21:24.241Z,18.30
2018-06-24T15:23:53.664Z,18.50
2018-06-24T15:26:22.931Z,18.60
2018-06-24T15:28:52.308Z,18.40
2018-06-24T15:31:21.724Z,18.50
2018-06-24T15:33:51.022Z,18.80
2018-06-24T15:36:20.304Z,18.40
2018-06-24T15:38:49.624Z,18.30
2018-06-24T15:41:18.932Z,18.30
2018-06-24T15:43:48.282Z,18.10
2018-06-24T15:46:17.596Z,18.10
2018-06-24T15:48:46.992Z,18.30
2018-06-24T15:51:18.139Z,18.40
2018-06-24T15:53:48.205Z,18.30
2018-06-24T15:56:17.522Z,18.50
2018-06-24T15:58:46.873Z,18.30
2018-06-24T16:01:16.129Z,18.70
2018-06-24T16:03:45.506Z,19.10
2018-06-24T16:06:15.058Z,19.10
2018-06-24T16:11:13.306Z,18.50
2018-06-24T16:13:42.966Z,18.30
2018-06-24T16:16:12.249Z,18.20
2018-06-24T16:18:41.604Z,18.40
2018-06-24T16:21:11.188Z,18.60
2018-06-24T16:23:40.762Z,18.70
2018-06-24T16:26:10.102Z,18.70
2018-06-24T16:28:39.441Z,18.60
2018-06-24T16:31:08.756Z,18.50
2018-06-24T16:33:38.162Z,18.30
2018-06-24T16:36:07.679Z,18.30
2018-06-24T16:41:05.944Z,18.50
2018-06-24T16:43:36.171Z,18.10
2018-06-24T16:46:05.644Z,17.90
2018-06-24T16:48:34.935Z,17.90
2018-06-24T16:51:04.302Z,17.90
2018-06-24T16:53:33.621Z,18.00
2018-06-24T16:58:32.087Z,17.60
2018-06-24T17:01:01.429Z,17.60
2018-06-24T17:03:30.734Z,17.40
2018-06-24T17:06:01.404Z,17.30
2018-06-24T17:08:30.688Z,17.40
2018-06-24T17:11:00.011Z,17.30
2018-06-24T17:13:29.313Z,17.50
2018-06-24T17:15:58.618Z,17.60
2018-06-24T17:18:27.887Z,17.40
2018-06-24T17:20:57.223Z,17.20
2018-06-24T17:23:26.565Z,17.30
2018-06-24T17:25:55.874Z,17.30
2018-06-24T17:28:25.141Z,17.20
2018-06-24T17:30:54.424Z,16.90
2018-06-24T17:33:23.695Z,17.00
2018-06-24T17:35:53.026Z,16.90
2018-06-24T17:38:22.517Z,16.70
2018-06-24T17:40:51.934Z,16.70
2018-06-24T17:43:21.457Z,16.80
2018-06-24T17:45:51.242Z,16.80
2018-06-24T17:48:20.624Z,16.80
2018-06-24T17:50:50.005Z,16.70
2018-06-24T17:53:19.526Z,16.60
2018-06-24T17:55:48.941Z,16.80
2018-06-24T17:58:18.303Z,16.80
2018-06-24T18:00:47.726Z,16.50
2018-06-24T18:03:17.148Z,16.50
2018-06-24T18:05:46.671Z,16.60
2018-06-24T18:08:16.080Z,16.50
2018-06-24T18:10:45.327Z,16.60
2018-06-24T18:13:14.896Z,16.40
2018-06-24T18:15:44.278Z,16.30
2018-06-24T18:18:13.731Z,16.30
2018-06-24T18:20:43.132Z,16.50
2018-06-24T18:23:12.538Z,16.50
2018-06-24T18:25:42.224Z,16.50
2018-06-24T18:28:11.904Z,16.20
2018-06-24T18:30:41.099Z,16.20
2018-06-24T18:33:10.641Z,16.30
2018-06-24T18:35:40.049Z,16.40
2018-06-24T18:38:09.303Z,16.30
2018-06-24T18:40:38.715Z,16.20
2018-06-24T18:43:08.020Z,16.00
2018-06-24T18:45:37.341Z,16.10
2018-06-24T18:48:06.705Z,16.00
2018-06-24T18:50:36.011Z,16.10
2018-06-24T18:53:05.362Z,16.10
2018-06-24T18:55:34.682Z,16.10
2018-06-24T18:58:04.267Z,16.00
2018-06-24T19:00:33.845Z,16.00
2018-06-24T19:03:03.473Z,15.90
2018-06-24T19:05:32.617Z,15.80
2018-06-24T19:08:01.962Z,15.90
2018-06-24T19:13:00.071Z,15.70
2018-06-24T19:15:29.605Z,15.70
2018-06-24T19:17:58.990Z,15.70
2018-06-24T19:20:28.501Z,15.60
2018-06-24T19:22:57.998Z,15.60
2018-06-24T19:25:27.263Z,15.60
2018-06-24T19:27:56.575Z,15.40
2018-06-24T19:30:25.844Z,15.40
2018-06-24T19:32:55.429Z,15.40
2018-06-24T19:35:24.875Z,15.30
2018-06-24T19:37:54.166Z,15.30
2018-06-24T19:40:23.597Z,15.40
2018-06-24T19:42:53.357Z,15.40
2018-06-24T19:45:22.698Z,15.30
2018-06-24T19:50:20.950Z,15.30
2018-06-24T19:52:52.887Z,15.30
2018-06-24T19:57:52.193Z,15.10
2018-06-24T20:02:50.345Z,15.00
2018-06-24T20:05:19.797Z,15.00
2018-06-24T20:07:49.205Z,15.10
2018-06-24T20:10:18.553Z,15.10
2018-06-24T20:12:47.953Z,15.10
2018-06-24T20:15:17.324Z,14.90
2018-06-24T20:17:46.618Z,14.90
2018-06-24T20:20:15.991Z,14.90
2018-06-24T20:22:45.256Z,14.90
2018-06-24T20:25:14.529Z,14.90
2018-06-24T20:27:43.854Z,14.80
2018-06-24T20:30:13.157Z,15.00
2018-06-24T20:32:42.437Z,15.00
2018-06-24T20:35:11.688Z,14.90
2018-06-24T20:37:40.977Z,14.90
2018-06-24T20:40:10.238Z,15.00
2018-06-24T20:42:39.560Z,14.80
2018-06-24T20:47:37.657Z,14.80
2018-06-24T20:50:07.091Z,14.70
2018-06-24T20:52:36.327Z,14.80
2018-06-24T20:55:06.000Z,14.80
2018-06-24T20:57:35.327Z,14.70
2018-06-24T21:00:05.277Z,14.80
2018-06-24T21:02:34.573Z,14.90
2018-06-24T21:05:04.482Z,14.80
2018-06-24T21:07:33.786Z,14.80
2018-06-24T21:12:31.879Z,14.70
2018-06-24T21:15:01.219Z,14.70
2018-06-24T21:17:30.633Z,14.70
2018-06-24T21:19:59.923Z,14.70
2018-06-24T21:22:29.351Z,14.80
2018-06-24T21:24:58.625Z,14.80
2018-06-24T21:27:27.921Z,14.80
2018-06-24T21:29:57.210Z,14.80
2018-06-24T21:32:26.629Z,14.70
2018-06-24T21:34:56.023Z,14.70
2018-06-24T21:37:25.333Z,14.70
2018-06-24T21:39:54.592Z,14.60
2018-06-24T21:42:24.306Z,14.60
2018-06-24T21:47:22.559Z,14.60
2018-06-24T21:49:51.898Z,14.60
2018-06-24T21:52:21.256Z,14.60
2018-06-24T21:54:50.557Z,14.50
2018-06-24T21:57:19.809Z,14.60
2018-06-24T21:59:49.117Z,14.50
2018-06-24T22:02:18.363Z,14.60
2018-06-24T22:04:47.710Z,14.50
2018-06-24T22:07:16.983Z,14.50
2018-06-24T22:09:46.293Z,14.50
2018-06-24T22:14:44.414Z,14.40
2018-06-24T22:17:13.724Z,14.30
2018-06-24T22:19:43.076Z,14.40
2018-06-24T22:22:12.368Z,14.30
2018-06-24T22:24:41.684Z,14.30
2018-06-24T22:27:11.012Z,14.30
2018-06-24T22:29:40.301Z,14.30
2018-06-24T22:32:09.913Z,14.30
2018-06-24T22:34:39.158Z,14.40
2018-06-24T22:37:08.453Z,14.30
2018-06-24T22:39:37.723Z,14.10
2018-06-24T22:42:07.010Z,14.10
2018-06-24T22:44:36.300Z,14.20
2018-06-24T22:47:05.719Z,14.10
2018-06-24T22:49:35.033Z,14.00
2018-06-24T22:52:04.385Z,14.00
2018-06-24T22:54:33.754Z,14.00
2018-06-24T22:57:03.016Z,14.00
2018-06-24T22:59:43.636Z,14.00
2018-06-24T23:02:13.137Z,14.00
2018-06-24T23:04:42.390Z,14.00
2018-06-24T23:07:11.776Z,14.10
2018-06-24T23:09:41.079Z,14.10
2018-06-24T23:12:10.433Z,14.00
2018-06-24T23:14:39.722Z,14.10
2018-06-24T23:17:08.989Z,14.10
2018-06-24T23:19:38.262Z,14.10
2018-06-24T23:22:07.531Z,14.00
2018-06-24T23:24:36.829Z,14.00
2018-06-24T23:27:06.130Z,14.00
2018-06-24T23:29:35.453Z,14.10
2018-06-24T23:32:04.708Z,14.10
2018-06-24T23:34:40.627Z,14.00
2018-06-24T23:37:10.285Z,14.10
2018-06-24T23:39:39.789Z,14.10
2018-06-24T23:42:09.457Z,14.10
2018-06-24T23:44:38.789Z,14.10
2018-06-24T23:47:08.061Z,14.20
2018-06-24T23:49:37.450Z,14.20
2018-06-24T23:54:35.652Z,14.20
2018-06-24T23:57:05.264Z,14.20
2018-06-24T23:59:34.532Z,14.20
